Terminal Aerodrome Forecast
Issued by NWS

Home | Current Version | Previous Version | Text Only | Print | Product List | Glossary On
Versions: 1 2 3 4 5 6 7 8 9 10 11 12 13
000
FTUS42 KGSP 221100
TAFAND
TAF
KAND 221129Z 2212/2312 24003KT P6SM SCT250
     FM221500 28007KT P6SM SCT120 BKN250
     FM230600 34003KT P6SM FEW060
     FM231000 00000KT P6SM BKN050=

USA.gov is the U.S. government's official web portal to all federal, state and local government web resources and services.